Flight Track Log - Related Links

Times and Time Zones

All times are in EDT time to prevent confusion due to time zone crossing. See the EJA831 flight status page for this flight to view local times or setup timezone preferences in your user account.


Time Position Orientation Groundspeed Altitude Reporting Facility
EDT Latitude Longitude Course Direction KTS MPH feet Rate Location/Type
Sun 08:20:10 AM 44.9442 -85.1897 110° East 204 235 3,500  Level Minneapolis Center
Sun 08:21:11 AM 44.8956 -85.1169 133° Southeast 249 287 7,000 3,492 Climbing Minneapolis Center
Sun 08:22:12 AM 44.8244 -85.0081 133° Southeast 300 345 10,600 3,148 Climbing Minneapolis Center
Sun 08:23:13 AM 44.7569 -84.9064 133° Southeast 341 392 13,400 2,754 Climbing Minneapolis Center
Sun 08:24:14 AM 44.6867 -84.8008 133° Southeast 364 419 16,200 2,852 Climbing Minneapolis Center
Sun 08:25:00 AM 44.6987 -84.0903 110° East  Level Estimated
Sun 08:25:15 AM 44.6153 -84.6933 133° Southeast 374 430 19,200  Level Minneapolis Center
Sun 08:26:16 AM 44.5439 -84.5861 133° Southeast 375 432 21,900 2,557 Climbing Minneapolis Center
Sun 08:27:17 AM 44.4708 -84.4769 133° Southeast 381 438 24,400 2,115 Climbing Minneapolis Center
Sun 08:28:18 AM 44.3975 -84.3664 133° Southeast 386 444 26,200 1,672 Climbing Minneapolis Center
Sun 08:29:19 AM 44.3183 -84.2486 133° Southeast 410 472 27,800 1,525 Climbing Minneapolis Center
Sun 08:30:20 AM 44.2361 -84.1272 133° Southeast 426 490 29,300 1,475 Climbing Minneapolis Center
Sun 08:31:21 AM 44.1539 -84.0069 134° Southeast 429 494 30,800 1,328 Climbing Minneapolis Center
Sun 08:32:22 AM 44.0689 -83.8817 133° Southeast 439 505 32,000 1,180 Climbing Minneapolis Center
Sun 08:33:23 AM 43.9831 -83.7553 133° Southeast 448 516 33,200 1,377 Climbing Minneapolis Center
Sun 08:34:24 AM 43.8906 -83.6219 134° Southeast 449 517 34,800 1,574 Climbing Minneapolis Center
Sun 08:35:25 AM 43.8075 -83.5006 133° Southeast 441 507 36,400 1,475 Climbing Minneapolis Center
Sun 08:36:26 AM 43.7250 -83.3811 134° Southeast 433 498 37,800 1,230 Climbing Minneapolis Center
Sun 08:37:27 AM 43.6422 -83.2633 134° Southeast 429 494 38,900 1,115 Climbing Minneapolis Center
Sun 08:38:19 AM 43.5511 -83.1408 136° Southeast 430 495 39,900 1,071 Climbing Cleveland Center
Sun 08:39:19 AM 43.4661 -83.0172 133° Southeast 430 495 40,900 550 Climbing Cleveland Center
Sun 08:40:19 AM 43.3811 -82.8939 133° Southeast 435 501 41,000 50 Climbing Cleveland Center
Sun 08:41:19 AM 43.2878 -82.7622 134° Southeast 457 526 41,000  Level Cleveland Center
Sun 08:42:19 AM 43.2200 -82.5972 119° Southeast 476 548 41,000  Level Cleveland Center
Sun 08:43:19 AM 43.1667 -82.4161 112° Southeast 487 560 41,000  Level Cleveland Center
Sun 08:44:19 AM 43.1175 -82.2328 110° East 499 574 41,000  Level Cleveland Center
Sun 08:45:19 AM 43.0947 -82.0503 100° East 491 565 41,000  Level Cleveland Center
Sun 08:46:19 AM 43.0742 -81.8592 98° East 496 571 41,000  Level Cleveland Center
Sun 08:47:13 AM 43.0500 -81.6833 101° East 500 575 41,000  Level Toronto Center
Sun 08:48:13 AM 43.0167 -81.5000 104° East 490 564 41,000  Level Toronto Center
Sun 08:49:13 AM 43.0000 -81.3167 97° East 480 552 41,000  Level Toronto Center
Sun 08:50:13 AM 42.9667 -81.1333 104° East 480 552 41,000  Level Toronto Center
Sun 08:51:13 AM 42.9333 -80.9500 104° East 480 552 41,000  Level Toronto Center
Sun 08:52:13 AM 42.9333 -80.7667 90° East 480 552 41,000  Level Toronto Center
Sun 08:53:13 AM 42.9000 -80.6167 107° East 480 552 41,000  Level Toronto Center
Sun 08:54:13 AM 42.8833 -80.4333 97° East 480 552 41,000  Level Toronto Center
Sun 08:55:08 AM 42.8706 -80.3000 97° East 479 551 41,000  Level Cleveland Center
Sun 08:56:07 AM 42.8469 -80.1217 100° East 479 551 41,000  Level Cleveland Center
Sun 08:57:08 AM 42.8378 -79.9461 94° East 474 545 41,000  Level Cleveland Center
Sun 08:58:07 AM 42.8386 -79.7678 90° East 468 539 41,000  Level Cleveland Center
Sun 08:59:07 AM 42.8394 -79.5922 90° East 462 532 41,000  Level Cleveland Center
Sun 09:00:07 AM 42.8400 -79.4139 90° East 462 532 41,000  Level Cleveland Center
Sun 09:01:07 AM 42.8422 -79.2353 89° East 462 532 41,000  Level Cleveland Center
Sun 09:02:07 AM 42.8442 -79.0597 89° East 462 532 41,000  Level Cleveland Center
Sun 09:03:07 AM 42.8458 -78.8814 89° East 462 532 41,000  Level Cleveland Center
Sun 09:04:07 AM 42.8453 -78.7086 90° East 462 532 41,000  Level Cleveland Center
Sun 09:05:07 AM 42.8444 -78.5358 90° East 455 524 41,000  Level Cleveland Center
Sun 09:06:07 AM 42.8453 -78.3603 90° East 455 524 41,000  Level Cleveland Center
Sun 09:07:07 AM 42.8439 -78.1847 91° East 460 529 41,000  Level Cleveland Center
Sun 09:08:07 AM 42.8442 -78.0119 90° East 460 529 41,000  Level Cleveland Center
Sun 09:09:08 AM 42.8442 -77.8222 90° East 460 529 41,000  Level Cleveland Center
Sun 09:10:07 AM 42.8439 -77.6494 90° East 460 529 41,000  Level Cleveland Center
Sun 09:11:42 AM 42.8394 -77.3736 91° East 458 527 41,000  Level Boston Center
Sun 09:12:42 AM 42.8386 -77.2008 90° East 458 527 41,000  Level Boston Center
Sun 09:13:42 AM 42.8353 -77.0278 91° East 458 527 41,000  Level Boston Center
Sun 09:14:42 AM 42.8317 -76.8575 92° East 458 527 41,000  Level Boston Center
Sun 09:15:42 AM 42.8192 -76.6894 96° East 453 521 41,000  Level Boston Center
Sun 09:16:42 AM 42.7983 -76.5181 99° East 453 521 41,000  Level Boston Center
Sun 09:17:42 AM 42.7731 -76.3494 101° East 453 521 41,000 -150 Level Boston Center
Sun 09:18:42 AM 42.7494 -76.1839 101° East 453 521 40,700 -650 Descending Boston Center
Sun 09:19:42 AM 42.7256 -76.0128 101° East 453 521 39,700 -850 Descending Boston Center
Sun 09:20:42 AM 42.6997 -75.8392 101° East 458 527 39,000 -350 Descending Boston Center
Sun 09:21:42 AM 42.6717 -75.6594 102° East 469 540 39,000  Level Boston Center
Sun 09:22:42 AM 42.6453 -75.4775 101° East 475 547 39,000  Level Boston Center
Sun 09:23:42 AM 42.6167 -75.2983 102° East 475 547 39,000  Level Boston Center
Sun 09:24:42 AM 42.5917 -75.1222 101° East 475 547 39,000 -650 Level Boston Center
Sun 09:25:42 AM 42.5644 -74.9461 102° East 475 547 37,700 -1,950 Descending Boston Center
Sun 09:26:42 AM 42.5350 -74.7647 102° East 481 554 35,100 -2,650 Descending Boston Center
Sun 09:27:42 AM 42.5092 -74.5892 101° East 500 575 32,400 -2,600 Descending Boston Center
Sun 09:28:42 AM 42.4833 -74.4164 101° East 495 570 29,900 -1,700 Descending Boston Center
Sun 09:29:42 AM 42.4547 -74.2439 103° East 479 551 29,000 -1,150 Descending Boston Center
Sun 09:30:42 AM 42.4261 -74.0742 103° East 465 535 27,600 -1,550 Descending Boston Center
Sun 09:31:42 AM 42.3972 -73.9019 103° East 465 535 25,900 -1,600 Descending Boston Center
Sun 09:32:42 AM 42.3722 -73.7383 102° East 453 521 24,400 -1,600 Descending Boston Center
Sun 09:33:42 AM 42.3447 -73.5750 103° East 453 521 22,700 -1,650 Descending Boston Center
Sun 09:34:42 AM 42.3211 -73.4089 101° East 453 521 21,100 -1,550 Descending Boston Center
Sun 09:35:42 AM 42.2911 -73.2653 106° East 426 490 19,600 -1,050 Descending Boston Center
Sun 09:36:42 AM 42.2567 -73.1244 108° East 400 460 19,000 -300 Descending Boston Center
Sun 09:37:42 AM 42.1719 -73.0031 133° Southeast 394 453 19,000  Level Boston Center
Sun 09:38:42 AM 42.1036 -72.9103 135° Southeast 394 453 19,000  Level Boston Center
Sun 09:39:42 AM 42.0247 -72.8061 136° Southeast 394 453 19,000 -455 Level Boston Center
Sun 09:40:54 AM 41.9228 -72.6883 139° Southeast 394 453 18,000 -1,322 Descending Boston Center
Sun 09:41:40 AM 41.8481 -72.6072 141° Southeast 393 452 16,400 -1,916 Descending Boston Center
Sun 09:42:53 AM 41.7458 -72.5069 144° Southeast 370 426 14,200 -1,791 Descending Boston Center
Sun 09:43:54 AM 41.6667 -72.4289 144° Southeast 348 400 12,400 -1,587 Descending Boston Center
Sun 09:44:54 AM 41.5917 -72.3514 142° Southeast 343 395 11,000 -1,400 Descending Boston Center
Sun 09:44:54 AM 41.5917 -72.3514 142° Southeast 354 407 11,000 -100 Level Boston Center
Sun 09:45:54 AM 41.5167 -72.2736 142° Southeast 344 396 10,900 -650 Descending Boston Center
Sun 09:46:54 AM 41.4497 -72.2075 143° Southeast 325 374 9,700 -1,441 Descending Boston Center
Sun 09:48:53 AM 41.3167 -72.2167 183° South 256 295 6,600 -1,274 Descending New York TRACON
Sun 09:49:53 AM 41.2667 -72.2667 217° Southwest 241 277 5,900 -1,000 Descending New York TRACON
Sun 09:50:53 AM 41.2167 -72.3167 217° Southwest 244 281 4,600 -1,000 Descending New York TRACON
Sun 09:51:47 AM 41.1667 -72.3500 207° Southwest 239 275 4,000 -300 Descending New York TRACON
Sun 09:52:53 AM 41.1000 -72.4167 217° Southwest 255 293 4,000 -50 Level New York TRACON
Sun 09:53:47 AM 41.0500 -72.4500 207° Southwest 255 293 3,900 -684 Descending New York TRACON
Sun 09:54:47 AM 40.9833 -72.4667 191° South 231 266 2,700 -750 Descending New York TRACON
Sun 09:55:47 AM 40.9333 -72.5167 217° Southwest 176 203 2,400 -737 Descending New York TRACON
Sun 09:56:41 AM 40.9000 -72.5500 217° Southwest 199 229 1,300 -1,053 Descending New York TRACON
Sun 09:57:41 AM 40.8667 -72.6000 229° Southwest 153 176 400 -900 Descending New York TRACON
Sun 09:59:00 AM 40.8333 -72.6167 123° Southeast  Level FlightAware Approximate

Login

Don't have an account? Register now (free) for customized features, flight alerts, and more!